createdAt,value
2017-11-11T00:02:20.059Z,5.10
2017-11-11T00:04:46.514Z,5.00
2017-11-11T00:07:12.945Z,5.00
2017-11-11T00:09:39.450Z,4.90
2017-11-11T00:12:05.949Z,4.80
2017-11-11T00:14:33.125Z,4.80
2017-11-11T00:17:00.350Z,4.90
2017-11-11T00:19:26.829Z,4.90
2017-11-11T00:21:53.345Z,5.00
2017-11-11T00:24:20.526Z,5.00
2017-11-11T00:26:46.982Z,5.00
2017-11-11T00:29:13.589Z,5.00
2017-11-11T00:31:40.147Z,5.00
2017-11-11T00:34:06.706Z,5.00
2017-11-11T00:36:33.286Z,5.00
2017-11-11T00:38:59.835Z,5.00
2017-11-11T00:41:26.255Z,4.90
2017-11-11T00:43:52.743Z,5.00
2017-11-11T00:46:19.227Z,5.00
2017-11-11T00:48:45.715Z,5.00
2017-11-11T00:51:13.125Z,5.00
2017-11-11T00:53:39.565Z,5.00
2017-11-11T00:56:06.036Z,5.00
2017-11-11T00:58:33.245Z,4.90
2017-11-11T01:00:59.801Z,4.90
2017-11-11T01:03:26.258Z,4.90
2017-11-11T01:05:52.740Z,4.90
2017-11-11T01:08:19.249Z,4.80
2017-11-11T01:10:45.703Z,4.80
2017-11-11T01:13:12.925Z,4.70
2017-11-11T01:15:39.385Z,4.70
2017-11-11T01:18:06.651Z,4.70
2017-11-11T01:20:33.844Z,4.60
2017-11-11T01:23:00.344Z,4.60
2017-11-11T01:25:26.819Z,4.70
2017-11-11T01:27:53.273Z,4.60
2017-11-11T01:30:19.768Z,4.60
2017-11-11T01:32:46.965Z,4.60
2017-11-11T01:35:13.512Z,4.60
2017-11-11T01:37:39.954Z,4.60
2017-11-11T01:43:00.887Z,4.40
2017-11-11T01:45:27.345Z,4.40
2017-11-11T01:47:54.555Z,4.40
2017-11-11T01:50:21.215Z,4.30
2017-11-11T01:52:47.665Z,4.40
2017-11-11T01:55:14.165Z,4.40
2017-11-11T01:57:40.597Z,4.30
2017-11-11T02:00:07.117Z,4.30
2017-11-11T02:02:34.305Z,4.30
2017-11-11T02:05:00.756Z,4.20
2017-11-11T02:07:27.230Z,4.30
2017-11-11T02:09:53.707Z,4.20
2017-11-11T02:12:20.267Z,4.20
2017-11-11T02:14:46.690Z,4.20
2017-11-11T02:17:13.162Z,4.10
2017-11-11T02:19:39.673Z,4.10
2017-11-11T02:22:06.313Z,4.00
2017-11-11T02:24:32.761Z,3.90
2017-11-11T02:26:59.194Z,3.90
2017-11-11T02:29:25.796Z,3.90
2017-11-11T02:31:52.229Z,3.80
2017-11-11T02:34:18.679Z,3.80
2017-11-11T02:36:45.158Z,3.80
2017-11-11T02:39:11.614Z,3.80
2017-11-11T02:41:38.113Z,3.70
2017-11-11T02:44:04.579Z,3.70
2017-11-11T02:46:31.044Z,3.70
2017-11-11T02:48:57.472Z,3.70
2017-11-11T02:51:23.979Z,3.70
2017-11-11T02:53:50.397Z,3.70
2017-11-11T02:56:17.571Z,3.80
2017-11-11T02:58:44.794Z,3.70
2017-11-11T03:01:11.222Z,3.70
2017-11-11T03:03:37.715Z,3.70
2017-11-11T03:06:04.150Z,3.80
2017-11-11T03:08:30.669Z,3.70
2017-11-11T03:10:57.924Z,3.80
2017-11-11T03:13:25.111Z,3.90
2017-11-11T03:15:51.613Z,3.90
2017-11-11T03:18:18.058Z,4.00
2017-11-11T03:20:45.245Z,4.20
2017-11-11T03:23:11.697Z,4.20
2017-11-11T03:25:38.153Z,4.30
2017-11-11T03:28:04.584Z,4.30
2017-11-11T03:30:37.999Z,4.40
2017-11-11T03:33:04.494Z,4.40
2017-11-11T03:35:30.924Z,4.40
2017-11-11T03:37:58.261Z,4.50
2017-11-11T03:40:25.562Z,4.40
2017-11-11T03:42:52.047Z,4.50
2017-11-11T03:45:18.486Z,4.50
2017-11-11T03:47:44.985Z,4.40
2017-11-11T03:50:11.435Z,4.50
2017-11-11T03:52:37.872Z,4.50
2017-11-11T03:55:04.345Z,4.60
2017-11-11T03:57:30.767Z,4.50
2017-11-11T03:59:57.229Z,4.60
2017-11-11T04:02:23.713Z,4.60
2017-11-11T04:04:50.176Z,4.60
2017-11-11T04:07:16.604Z,4.70
2017-11-11T04:09:43.139Z,4.70
2017-11-11T04:12:09.570Z,4.70
2017-11-11T04:14:36.040Z,4.70
2017-11-11T04:17:02.494Z,4.70
2017-11-11T04:19:28.957Z,4.70
2017-11-11T04:21:56.206Z,4.70
2017-11-11T04:24:23.401Z,4.70
2017-11-11T04:26:49.973Z,4.70
2017-11-11T04:29:16.414Z,4.70
2017-11-11T04:31:42.839Z,4.60
2017-11-11T04:34:09.325Z,4.60
2017-11-11T04:36:36.515Z,4.60
2017-11-11T04:39:04.319Z,4.60
2017-11-11T04:41:30.761Z,4.60
2017-11-11T04:43:57.305Z,4.50
2017-11-11T04:46:23.750Z,4.50
2017-11-11T04:48:50.290Z,4.50
2017-11-11T04:54:10.065Z,4.50
2017-11-11T04:56:38.069Z,4.50
2017-11-11T04:59:04.496Z,4.50
2017-11-11T05:01:31.716Z,4.50
2017-11-11T05:03:58.320Z,4.50
2017-11-11T05:06:24.876Z,4.50
2017-11-11T05:08:51.474Z,4.50
2017-11-11T05:11:17.904Z,4.50
2017-11-11T05:13:44.370Z,4.50
2017-11-11T05:16:11.547Z,4.50
2017-11-11T05:18:38.068Z,4.50
2017-11-11T05:21:05.284Z,4.40
2017-11-11T05:23:31.806Z,4.40
2017-11-11T05:25:58.280Z,4.40
2017-11-11T05:28:24.712Z,4.40
2017-11-11T05:30:51.182Z,4.30
2017-11-11T05:33:18.363Z,4.40
2017-11-11T05:35:44.841Z,4.30
2017-11-11T05:38:11.269Z,4.40
2017-11-11T05:40:37.804Z,4.40
2017-11-11T05:43:04.277Z,4.40
2017-11-11T05:45:31.473Z,4.40
2017-11-11T05:47:57.924Z,4.40
2017-11-11T05:50:24.357Z,4.40
2017-11-11T05:52:50.809Z,4.50
2017-11-11T05:55:17.264Z,4.40
2017-11-11T05:57:43.740Z,4.40
2017-11-11T06:00:10.989Z,4.40
2017-11-11T06:02:38.303Z,4.40
2017-11-11T06:05:04.805Z,4.40
2017-11-11T06:07:32.013Z,4.40
2017-11-11T06:09:58.526Z,4.40
2017-11-11T06:12:24.984Z,4.40
2017-11-11T06:14:51.443Z,4.40
2017-11-11T06:17:18.077Z,4.40
2017-11-11T06:19:44.550Z,4.40
2017-11-11T06:22:10.981Z,4.40
2017-11-11T06:24:37.468Z,4.40
2017-11-11T06:27:03.905Z,4.40
2017-11-11T06:29:30.408Z,4.40
2017-11-11T06:31:57.697Z,4.40
2017-11-11T06:34:24.128Z,4.40
2017-11-11T06:36:50.609Z,4.40
2017-11-11T06:39:17.025Z,4.40
2017-11-11T06:41:43.516Z,4.40
2017-11-11T06:44:10.013Z,4.40
2017-11-11T06:46:36.508Z,4.40
2017-11-11T06:49:03.704Z,4.40
2017-11-11T06:51:30.145Z,4.30
2017-11-11T06:53:56.603Z,4.40
2017-11-11T06:56:23.102Z,4.40
2017-11-11T06:58:49.607Z,4.40
2017-11-11T07:01:16.796Z,4.50
2017-11-11T07:03:43.238Z,4.50
2017-11-11T07:06:09.714Z,4.50
2017-11-11T07:08:36.208Z,4.50
2017-11-11T07:11:02.721Z,4.50
2017-11-11T07:13:29.904Z,4.60
2017-11-11T07:15:56.365Z,4.60
2017-11-11T07:18:22.848Z,4.60
2017-11-11T07:20:49.269Z,4.70
2017-11-11T07:23:15.811Z,4.70
2017-11-11T07:25:42.281Z,4.80
2017-11-11T07:28:09.525Z,4.90
2017-11-11T07:30:35.970Z,4.80
2017-11-11T07:33:02.429Z,4.90
2017-11-11T07:35:29.796Z,5.00
2017-11-11T07:37:56.284Z,4.90
2017-11-11T07:40:29.800Z,5.00
2017-11-11T07:42:56.246Z,5.10
2017-11-11T07:45:22.698Z,5.10
2017-11-11T07:47:50.071Z,5.30
2017-11-11T07:50:16.521Z,5.20
2017-11-11T07:52:42.983Z,5.30
2017-11-11T07:55:09.422Z,5.40
2017-11-11T07:57:35.911Z,5.50
2017-11-11T08:00:03.254Z,5.60
2017-11-11T08:02:30.445Z,5.70
2017-11-11T08:04:56.929Z,5.70
2017-11-11T08:10:17.872Z,5.80
2017-11-11T08:12:45.061Z,5.90
2017-11-11T08:15:11.660Z,5.90
2017-11-11T08:17:38.148Z,5.90
2017-11-11T08:20:04.602Z,5.90
2017-11-11T08:22:31.125Z,6.00
2017-11-11T08:24:57.728Z,5.90
2017-11-11T08:27:31.386Z,5.90
2017-11-11T08:29:57.831Z,6.00
2017-11-11T08:32:24.301Z,6.00
2017-11-11T08:34:51.559Z,6.00
2017-11-11T08:37:18.767Z,6.00
2017-11-11T08:39:45.181Z,6.00
2017-11-11T08:42:12.440Z,6.00
2017-11-11T08:44:39.812Z,5.90
2017-11-11T08:47:06.343Z,5.90
2017-11-11T08:49:32.796Z,5.80
2017-11-11T08:51:59.288Z,5.80
2017-11-11T08:54:25.773Z,5.70
2017-11-11T08:56:52.329Z,5.70
2017-11-11T08:59:18.788Z,5.70
2017-11-11T09:01:45.290Z,5.70
2017-11-11T09:04:11.747Z,5.70
2017-11-11T09:06:38.188Z,5.70
2017-11-11T09:09:04.636Z,5.70
2017-11-11T09:11:31.109Z,5.80
2017-11-11T09:13:58.285Z,5.70
2017-11-11T09:16:25.572Z,5.70
2017-11-11T09:18:52.038Z,5.70
2017-11-11T09:21:18.536Z,5.70
2017-11-11T09:23:44.996Z,5.70
2017-11-11T09:26:11.571Z,5.80
2017-11-11T09:28:38.036Z,5.80
2017-11-11T09:31:05.234Z,5.80
2017-11-11T09:33:31.732Z,5.80
2017-11-11T09:35:58.925Z,5.90
2017-11-11T09:38:25.384Z,5.90
2017-11-11T09:40:52.077Z,5.90
2017-11-11T09:43:19.289Z,6.00
2017-11-11T09:45:45.801Z,6.00
2017-11-11T09:48:12.353Z,5.90
2017-11-11T09:50:38.797Z,5.90
2017-11-11T09:53:05.465Z,5.90
2017-11-11T09:55:31.917Z,5.90
2017-11-11T09:57:58.368Z,5.90
2017-11-11T10:00:25.845Z,5.90
2017-11-11T10:02:52.317Z,5.90
2017-11-11T10:05:18.778Z,5.90
2017-11-11T10:07:45.252Z,5.90
2017-11-11T10:10:12.476Z,5.90
2017-11-11T10:12:39.666Z,6.00
2017-11-11T10:15:06.931Z,6.00
2017-11-11T10:17:33.546Z,6.00
2017-11-11T10:20:00.752Z,6.00
2017-11-11T10:22:27.191Z,6.00
2017-11-11T10:24:53.706Z,6.10
2017-11-11T10:27:20.216Z,6.10
2017-11-11T10:29:47.650Z,6.20
2017-11-11T10:32:14.094Z,6.20
2017-11-11T10:34:40.592Z,6.20
2017-11-11T10:37:07.026Z,6.30
2017-11-11T10:39:33.533Z,6.20
2017-11-11T10:41:59.954Z,6.20
2017-11-11T10:44:26.390Z,6.20
2017-11-11T10:46:52.882Z,6.20
2017-11-11T10:49:19.357Z,6.10
2017-11-11T10:51:45.853Z,6.10
2017-11-11T10:54:14.122Z,6.10
2017-11-11T10:56:41.333Z,6.20
2017-11-11T10:59:07.798Z,6.10
2017-11-11T11:01:34.349Z,6.20
2017-11-11T11:04:01.675Z,6.20
2017-11-11T11:06:28.194Z,6.10
2017-11-11T11:08:54.703Z,6.20
2017-11-11T11:11:21.946Z,6.10
2017-11-11T11:13:48.423Z,6.10
2017-11-11T11:16:14.927Z,6.10
2017-11-11T11:18:41.368Z,6.00
2017-11-11T11:21:08.110Z,6.00
2017-11-11T11:23:35.357Z,6.00
2017-11-11T11:26:01.815Z,6.00
2017-11-11T11:28:29.100Z,5.90
2017-11-11T11:30:55.665Z,5.90
2017-11-11T11:33:22.222Z,6.00
2017-11-11T11:35:48.640Z,5.90
2017-11-11T11:38:15.091Z,5.80
2017-11-11T11:40:41.569Z,5.90
2017-11-11T11:43:09.232Z,5.90
2017-11-11T11:45:37.045Z,5.90
2017-11-11T11:48:03.504Z,5.80
2017-11-11T11:50:29.961Z,5.90
2017-11-11T11:52:56.483Z,5.90
2017-11-11T11:55:22.981Z,5.90
2017-11-11T11:57:50.321Z,6.00
2017-11-11T12:00:16.825Z,6.00
2017-11-11T12:02:43.324Z,6.00
2017-11-11T12:05:09.975Z,6.00
2017-11-11T12:07:36.386Z,6.10
2017-11-11T12:10:03.633Z,6.20
2017-11-11T12:12:37.163Z,6.20
2017-11-11T12:15:03.662Z,6.20
2017-11-11T12:17:37.211Z,6.20
2017-11-11T12:20:10.638Z,6.20
2017-11-11T12:22:37.136Z,6.20
2017-11-11T12:25:04.316Z,6.30
2017-11-11T12:27:30.756Z,6.30
2017-11-11T12:29:57.240Z,6.30
2017-11-11T12:32:23.733Z,6.40
2017-11-11T12:34:50.256Z,6.40
2017-11-11T12:37:16.723Z,6.50
2017-11-11T12:39:43.336Z,6.50
2017-11-11T12:42:09.824Z,6.60
2017-11-11T12:44:36.276Z,6.60
2017-11-11T12:47:02.783Z,6.40
2017-11-11T12:49:29.265Z,6.40
2017-11-11T12:51:55.809Z,6.50
2017-11-11T12:54:23.046Z,6.40
2017-11-11T12:56:49.533Z,6.40
2017-11-11T12:59:16.033Z,6.40
2017-11-11T13:01:43.287Z,6.50
2017-11-11T13:04:09.797Z,6.50
2017-11-11T13:06:36.252Z,6.50
2017-11-11T13:09:02.762Z,6.50
2017-11-11T13:11:29.240Z,6.50
2017-11-11T13:13:55.772Z,6.50
2017-11-11T13:16:22.282Z,6.50
2017-11-11T13:18:48.762Z,6.50
2017-11-11T13:21:15.221Z,6.60
2017-11-11T13:23:42.458Z,6.60
2017-11-11T13:26:08.913Z,6.60
2017-11-11T13:28:36.114Z,6.60
2017-11-11T13:31:02.561Z,6.60
2017-11-11T13:33:29.017Z,6.50
2017-11-11T13:35:55.496Z,6.60
2017-11-11T13:38:22.677Z,6.60
2017-11-11T13:40:49.261Z,6.60
2017-11-11T13:43:15.772Z,6.60
2017-11-11T13:45:42.361Z,6.60
2017-11-11T13:48:09.577Z,6.60
2017-11-11T13:50:36.141Z,6.60
2017-11-11T13:53:02.679Z,6.50
2017-11-11T13:55:29.151Z,6.50
2017-11-11T13:57:56.377Z,6.50
2017-11-11T14:00:22.887Z,6.50
2017-11-11T14:02:49.458Z,6.50
2017-11-11T14:05:15.945Z,6.50
2017-11-11T14:07:42.432Z,6.60
2017-11-11T14:10:08.899Z,6.50
2017-11-11T14:12:35.420Z,6.50
2017-11-11T14:15:01.901Z,6.60
2017-11-11T14:17:29.193Z,6.60
2017-11-11T14:19:55.656Z,6.60
2017-11-11T14:22:22.149Z,6.60
2017-11-11T14:24:48.649Z,6.60
2017-11-11T14:27:15.086Z,6.60
2017-11-11T14:29:41.600Z,6.70
2017-11-11T14:32:08.066Z,6.70
2017-11-11T14:34:34.573Z,6.60
2017-11-11T14:37:01.057Z,6.60
2017-11-11T14:39:28.691Z,6.60
2017-11-11T14:41:55.265Z,6.60
2017-11-11T14:44:22.421Z,6.60
2017-11-11T14:46:48.897Z,6.50
2017-11-11T14:49:15.433Z,6.50
2017-11-11T14:51:42.119Z,6.50
2017-11-11T14:54:08.565Z,6.50
2017-11-11T14:56:35.126Z,6.50
2017-11-11T14:59:01.617Z,6.50
2017-11-11T15:01:28.118Z,6.60
2017-11-11T15:03:55.414Z,6.60
2017-11-11T15:06:21.881Z,6.60
2017-11-11T15:08:48.371Z,6.60
2017-11-11T15:11:14.861Z,6.60
2017-11-11T15:13:41.369Z,6.60
2017-11-11T15:16:08.021Z,6.70
2017-11-11T15:18:34.526Z,6.70
2017-11-11T15:21:00.997Z,6.70
2017-11-11T15:23:27.567Z,6.70
2017-11-11T15:25:54.800Z,6.70
2017-11-11T15:28:21.312Z,6.70
2017-11-11T15:30:47.788Z,6.70
2017-11-11T15:33:14.353Z,6.80
2017-11-11T15:35:40.864Z,6.70
2017-11-11T15:38:07.451Z,6.70
2017-11-11T15:40:34.694Z,6.70
2017-11-11T15:43:01.157Z,6.60
2017-11-11T15:45:28.394Z,6.70
2017-11-11T15:47:55.616Z,6.70
2017-11-11T15:50:22.105Z,6.70
2017-11-11T15:52:48.573Z,6.70
2017-11-11T15:55:15.165Z,6.70
2017-11-11T15:57:41.775Z,6.70
2017-11-11T16:00:08.966Z,6.80
2017-11-11T16:02:36.211Z,6.80
2017-11-11T16:05:02.686Z,6.80
2017-11-11T16:07:29.153Z,6.90
2017-11-11T16:09:55.844Z,6.90
2017-11-11T16:12:22.426Z,6.90
2017-11-11T16:14:48.942Z,6.90
2017-11-11T16:17:23.171Z,7.00
2017-11-11T16:19:49.672Z,6.90
2017-11-11T16:22:16.174Z,7.00
2017-11-11T16:24:49.648Z,7.00
2017-11-11T16:27:16.116Z,7.00
2017-11-11T16:29:42.553Z,7.00
2017-11-11T16:32:09.048Z,7.00
2017-11-11T16:34:35.606Z,7.00
2017-11-11T16:37:02.085Z,7.00
2017-11-11T16:39:28.648Z,7.00
2017-11-11T16:41:55.111Z,7.00
2017-11-11T16:44:22.386Z,7.10
2017-11-11T16:46:48.864Z,7.00
2017-11-11T16:49:15.346Z,7.00
2017-11-11T16:51:42.610Z,7.10
2017-11-11T16:54:09.811Z,7.10
2017-11-11T16:56:36.474Z,7.10
2017-11-11T16:59:02.926Z,7.10
2017-11-11T17:01:29.622Z,7.10
2017-11-11T17:03:56.228Z,7.10
2017-11-11T17:06:23.446Z,7.10
2017-11-11T17:08:50.009Z,7.10
2017-11-11T17:11:16.477Z,7.10
2017-11-11T17:13:43.705Z,7.10
2017-11-11T17:16:10.396Z,7.10
2017-11-11T17:18:36.937Z,7.10
2017-11-11T17:21:03.453Z,7.10
2017-11-11T17:23:30.641Z,7.20
2017-11-11T17:25:57.162Z,7.10
2017-11-11T17:28:24.076Z,7.10
2017-11-11T17:30:50.618Z,7.10
2017-11-11T17:33:17.888Z,7.20
2017-11-11T17:35:45.394Z,7.20
2017-11-11T17:38:11.933Z,7.20
2017-11-11T17:40:38.419Z,7.20
2017-11-11T17:43:04.954Z,7.20
2017-11-11T17:45:31.563Z,7.20
2017-11-11T17:47:58.078Z,7.20
2017-11-11T17:50:24.670Z,7.20
2017-11-11T17:52:51.254Z,7.20
2017-11-11T17:55:17.786Z,7.30
2017-11-11T17:57:45.091Z,7.30
2017-11-11T18:00:12.309Z,7.30
2017-11-11T18:02:38.790Z,7.30
2017-11-11T18:05:05.355Z,7.30
2017-11-11T18:07:31.924Z,7.30
2017-11-11T18:09:58.495Z,7.30
2017-11-11T18:12:24.990Z,7.30
2017-11-11T18:14:52.264Z,7.30
2017-11-11T18:27:04.610Z,7.30
2017-11-11T18:29:31.069Z,7.30
2017-11-11T18:31:57.513Z,7.40
2017-11-11T18:34:24.727Z,7.40
2017-11-11T18:36:51.391Z,7.40
2017-11-11T18:39:32.850Z,7.40
2017-11-11T18:41:59.328Z,7.50
2017-11-11T18:44:27.281Z,7.50
2017-11-11T18:46:53.817Z,7.50
2017-11-11T18:49:20.361Z,7.50
2017-11-11T18:51:46.879Z,7.50
2017-11-11T18:54:13.471Z,7.50
2017-11-11T18:56:40.687Z,7.50
2017-11-11T18:59:07.244Z,7.50
2017-11-11T19:01:33.785Z,7.50
2017-11-11T19:04:00.290Z,7.50
2017-11-11T19:06:26.798Z,7.60
2017-11-11T19:08:53.284Z,7.60
2017-11-11T19:11:20.301Z,7.60
2017-11-11T19:13:47.663Z,7.60
2017-11-11T19:16:14.942Z,7.60
2017-11-11T19:18:41.674Z,7.60
2017-11-11T19:21:08.894Z,7.60
2017-11-11T19:23:36.115Z,7.60
2017-11-11T19:26:03.272Z,7.60
2017-11-11T19:28:29.905Z,7.60
2017-11-11T19:30:57.213Z,7.60
2017-11-11T19:33:23.750Z,7.70
2017-11-11T19:35:50.290Z,7.70
2017-11-11T19:38:19.082Z,7.70
2017-11-11T19:40:46.157Z,7.70
2017-11-11T19:43:13.422Z,7.70
2017-11-11T19:45:40.867Z,7.70
2017-11-11T19:48:08.369Z,7.70
2017-11-11T19:50:34.952Z,7.70
2017-11-11T19:53:01.509Z,7.70
2017-11-11T19:55:29.603Z,7.80
2017-11-11T19:57:57.889Z,7.80
2017-11-11T20:00:24.555Z,7.70
2017-11-11T20:02:51.111Z,7.80
2017-11-11T20:05:19.867Z,7.80
2017-11-11T20:07:46.383Z,7.80
2017-11-11T20:10:13.739Z,7.80
2017-11-11T20:12:41.081Z,7.80
2017-11-11T20:15:07.758Z,7.70
2017-11-11T20:17:35.068Z,7.80
2017-11-11T20:20:01.564Z,7.80
2017-11-11T20:22:28.912Z,7.80
2017-11-11T20:24:55.909Z,7.80
2017-11-11T20:27:22.373Z,7.80
2017-11-11T20:29:48.960Z,7.80
2017-11-11T20:32:15.493Z,7.80
2017-11-11T20:34:42.900Z,7.80
2017-11-11T20:46:54.499Z,7.80
2017-11-11T20:49:21.016Z,7.80
2017-11-11T20:51:47.572Z,7.80
2017-11-11T20:54:14.155Z,7.80
2017-11-11T20:56:40.647Z,7.80
2017-11-11T20:59:07.262Z,7.90
2017-11-11T21:01:34.046Z,7.90
2017-11-11T21:04:00.571Z,7.90
2017-11-11T21:06:27.181Z,7.90
2017-11-11T21:08:53.741Z,7.90
2017-11-11T21:11:20.250Z,7.90
2017-11-11T21:13:47.518Z,7.90
2017-11-11T21:16:14.020Z,7.90
2017-11-11T21:18:40.526Z,7.90
2017-11-11T21:21:07.012Z,7.90
2017-11-11T21:23:33.514Z,7.90
2017-11-11T21:35:50.130Z,7.90
2017-11-11T21:38:16.678Z,7.80
2017-11-11T21:40:43.154Z,7.90
2017-11-11T21:43:09.640Z,7.90
2017-11-11T21:45:36.184Z,7.90
2017-11-11T21:48:02.715Z,7.90
2017-11-11T21:50:29.218Z,7.90
2017-11-11T21:52:55.897Z,7.90
2017-11-11T21:55:22.486Z,8.00
2017-11-11T21:57:49.936Z,8.00
2017-11-11T22:00:17.250Z,8.00
2017-11-11T22:02:43.941Z,7.90
2017-11-11T22:05:11.143Z,8.00
2017-11-11T22:07:37.641Z,8.00
2017-11-11T22:10:04.916Z,8.00
2017-11-11T22:12:31.437Z,8.00
2017-11-11T22:14:58.872Z,8.00
2017-11-11T22:17:25.370Z,8.00
2017-11-11T22:19:52.350Z,7.40
2017-11-11T22:22:19.650Z,7.10
2017-11-11T22:24:46.866Z,7.00
2017-11-11T22:27:13.379Z,7.00
2017-11-11T22:29:39.940Z,6.90
2017-11-11T22:32:06.503Z,6.90
2017-11-11T22:34:33.014Z,6.90
2017-11-11T22:36:59.566Z,6.80
2017-11-11T22:39:26.167Z,6.80
2017-11-11T22:41:52.690Z,6.80
2017-11-11T22:44:19.968Z,6.80
2017-11-11T22:46:46.528Z,6.80
2017-11-11T22:49:13.029Z,6.70
2017-11-11T22:51:40.271Z,6.70
2017-11-11T22:54:07.542Z,6.70
2017-11-11T22:56:42.025Z,6.70
2017-11-11T22:59:08.556Z,6.70
2017-11-11T23:01:35.093Z,6.80
2017-11-11T23:04:01.691Z,6.70
2017-11-11T23:06:28.927Z,6.70
2017-11-11T23:08:55.466Z,6.70
2017-11-11T23:11:21.996Z,6.70
2017-11-11T23:13:49.034Z,6.70
2017-11-11T23:16:15.733Z,6.60
2017-11-11T23:18:42.964Z,6.50
2017-11-11T23:21:10.332Z,6.50
2017-11-11T23:23:36.835Z,6.50
2017-11-11T23:26:03.321Z,6.30
2017-11-11T23:28:30.614Z,6.20
2017-11-11T23:30:57.096Z,6.20
2017-11-11T23:33:23.594Z,6.20
2017-11-11T23:35:50.116Z,6.00
2017-11-11T23:38:17.411Z,6.00
2017-11-11T23:40:43.902Z,5.90
2017-11-11T23:43:11.126Z,5.90
2017-11-11T23:45:37.637Z,5.80
2017-11-11T23:48:04.119Z,5.90
2017-11-11T23:50:30.574Z,5.80
2017-11-11T23:52:57.877Z,5.80
2017-11-11T23:55:24.382Z,5.80
2017-11-11T23:57:51.603Z,5.80
